Time;durP1;ratioP1;P1;durP2;ratioP2;P2;SDS_P1;SDS_P2;PMS_P1;PMS_P2;Temp;Humidity;BMP_temperature;BMP_pressure;BME280_temperature;BME280_humidity;BME280_pressure;Samples;Min_cycle;Max_cycle;Signal;HPM_P1;HPM_P2
2022/06/30 00:01:39;;;;;;;1.40;0.82;;;26.00;86.60;;;24.52;51.54;101100.84;5034546;28;20119;-55
2022/06/30 00:04:05;;;;;;;1.75;0.85;;;26.10;86.50;;;24.52;51.35;101111.97;5034076;28;20143;-57
2022/06/30 00:06:31;;;;;;;2.40;0.98;;;26.00;87.10;;;24.51;51.78;101098.28;5034321;28;20037;-49
2022/06/30 00:08:57;;;;;;;1.45;1.00;;;26.00;87.20;;;24.50;51.75;101096.63;5033749;28;20033;-57
2022/06/30 00:11:23;;;;;;;1.20;0.90;;;26.30;87.30;;;24.50;51.71;101105.78;5034172;28;20052;-57
2022/06/30 00:13:50;;;;;;;1.60;0.80;;;26.10;87.10;;;24.49;51.73;101100.47;5034380;28;20380;-56
2022/06/30 00:16:16;;;;;;;2.83;0.93;;;;;;;24.49;51.62;101092.13;5034031;28;20463;-57
2022/06/30 00:18:42;;;;;;;1.05;0.80;;;25.80;69.20;;;24.47;51.49;101091.53;5034016;28;20033;-56
2022/06/30 00:21:09;;;;;;;1.15;0.90;;;26.20;67.50;;;24.46;51.70;101092.63;5033906;28;20392;-56
2022/06/30 00:23:35;;;;;;;0.73;0.63;;;26.00;86.90;;;24.47;51.87;101088.75;5033846;28;20041;-57
2022/06/30 00:26:02;;;;;;;2.25;1.00;;;26.10;86.90;;;24.45;52.04;101096.50;5033992;28;20048;-48
2022/06/30 00:28:28;;;;;;;0.80;0.80;;;;;;;24.44;51.75;101092.03;5033829;28;20045;-49
2022/06/30 00:30:54;;;;;;;1.35;0.82;;;25.60;59.10;;;24.43;51.82;101091.19;5033750;28;20396;-50
2022/06/30 00:33:20;;;;;;;1.40;1.08;;;25.80;70.40;;;24.44;51.98;101092.03;5033647;28;20171;-48
2022/06/30 00:35:47;;;;;;;0.95;0.90;;;25.80;55.20;;;24.42;51.93;101089.50;5033649;28;20069;-48
2022/06/30 00:38:13;;;;;;;1.30;0.88;;;26.00;86.50;;;24.42;51.77;101083.94;5033656;28;20546;-49
2022/06/30 00:40:42;;;;;;;1.25;0.85;;;26.00;86.90;;;24.40;51.82;101083.34;5033562;28;20396;-49
2022/06/30 00:43:08;;;;;;;1.45;1.00;;;25.80;75.60;;;24.39;51.80;101084.41;5033710;28;20396;-47
2022/06/30 00:45:44;;;;;;;1.70;0.80;;;25.70;86.10;;;24.40;51.95;101085.28;5033535;28;20041;-48
2022/06/30 00:48:12;;;;;;;1.08;0.80;;;25.30;86.40;;;24.39;51.87;101081.63;5033469;28;20038;-49
2022/06/30 00:50:38;;;;;;;1.20;0.90;;;;;;;24.37;51.82;101075.50;5033414;28;20040;-49
2022/06/30 00:53:05;;;;;;;2.67;0.90;;;25.50;59.30;;;24.39;52.20;101069.66;5033562;28;20439;-48
2022/06/30 00:55:32;;;;;;;1.60;1.00;;;25.90;86.90;;;24.37;51.95;101069.94;5033299;28;20061;-49
2022/06/30 00:58:02;;;;;;;2.95;1.05;;;25.60;70.00;;;24.37;52.13;101064.38;5033314;28;20072;-49
2022/06/30 01:00:33;;;;;;;1.75;0.93;;;25.90;60.60;;;24.35;52.11;101066.53;5033206;28;20132;-48
2022/06/30 01:03:00;;;;;;;1.75;1.10;;;25.90;87.00;;;24.36;52.15;101071.00;5033146;28;20029;-48
2022/06/30 01:05:27;;;;;;;2.10;1.20;;;25.90;86.90;;;24.34;51.87;101067.66;5032922;28;20068;-48
2022/06/30 01:07:54;;;;;;;1.08;0.90;;;26.00;87.20;;;24.35;51.98;101069.31;5033090;28;20112;-49
2022/06/30 01:13:05;;;;;;;2.15;1.00;;;25.30;86.60;;;24.33;52.12;101064.00;5033315;28;20432;-49
2022/06/30 01:15:31;;;;;;;0.82;0.82;;;25.60;87.10;;;24.31;52.02;101057.00;5032920;28;20033;-47
2022/06/30 01:17:57;;;;;;;2.40;1.20;;;26.00;87.00;;;24.32;52.07;101067.03;5033200;28;20472;-48
2022/06/30 01:20:30;;;;;;;1.30;0.90;;;25.60;86.80;;;24.31;52.14;101070.91;5032109;28;20057;-47
2022/06/30 01:22:57;;;;;;;1.35;1.00;;;25.70;55.60;;;24.30;52.10;101074.78;5032737;28;20538;-47
2022/06/30 01:25:26;;;;;;;1.30;1.10;;;25.80;87.20;;;24.30;52.46;101102.59;5033069;28;20082;-48
2022/06/30 01:27:54;;;;;;;3.90;1.50;;;25.80;86.80;;;24.29;52.35;101106.44;5032751;28;20030;-48
2022/06/30 01:30:20;;;;;;;1.27;0.90;;;;;;;24.29;52.11;101112.84;5032695;28;20042;-48
2022/06/30 01:32:46;;;;;;;1.40;1.00;;;25.80;87.40;;;24.28;52.41;101119.53;5032619;28;20057;-47
2022/06/30 01:35:12;;;;;;;8.48;1.02;;;25.40;86.60;;;24.28;52.09;101099.22;5032602;28;20037;-49
2022/06/30 01:37:51;;;;;;;2.85;1.10;;;25.60;86.90;;;24.26;52.26;101118.09;5032521;28;20029;-48
2022/06/30 01:40:19;;;;;;;1.08;0.70;;;25.50;86.90;;;24.27;52.63;101128.09;5032618;28;20041;-49
2022/06/30 01:42:45;;;;;;;1.42;0.80;;;26.00;87.40;;;24.25;52.20;101111.69;5032437;28;20034;-49
2022/06/30 01:45:11;;;;;;;3.55;0.98;;;25.40;86.80;;;24.25;52.35;101113.59;5032457;28;20039;-49
2022/06/30 01:47:38;;;;;;;1.10;0.98;;;;;;;24.23;52.25;101102.72;5032474;28;20056;-48
2022/06/30 01:50:09;;;;;;;1.48;1.00;;;25.30;58.00;;;24.23;52.37;101121.34;5032380;28;20087;-48
2022/06/30 01:52:34;;;;;;;1.45;0.80;;;26.00;87.20;;;24.24;52.46;101111.91;5031185;28;20128;-49
2022/06/30 01:55:00;;;;;;;1.20;1.00;;;;;;;24.23;52.50;101126.91;5032290;28;20069;-47
2022/06/30 01:57:26;;;;;;;1.40;1.08;;;25.80;87.30;;;24.21;52.48;101110.47;5032603;28;20471;-48
2022/06/30 01:59:52;;;;;;;1.58;0.80;;;25.50;82.00;;;24.21;52.43;101120.75;5032330;28;20065;-50
2022/06/30 02:02:18;;;;;;;1.42;0.82;;;;;;;24.20;52.20;101113.50;5032266;28;20030;-49
2022/06/30 02:04:46;;;;;;;1.52;1.10;;;25.80;82.50;;;24.19;52.19;101123.78;5032290;28;20402;-49
2022/06/30 02:07:13;;;;;;;1.42;1.00;;;25.40;87.10;;;24.20;52.25;101127.41;5032231;28;20029;-49
2022/06/30 02:09:39;;;;;;;1.80;0.90;;;25.80;87.00;;;24.18;52.00;101119.28;5032201;28;20033;-49
2022/06/30 02:14:50;;;;;;;1.85;1.05;;;25.30;75.20;;;24.17;52.17;101112.03;5032474;28;20461;-47
2022/06/30 02:17:16;;;;;;;1.70;1.10;;;25.60;86.80;;;24.17;52.02;101111.22;5032404;28;20113;-48
2022/06/30 02:19:42;;;;;;;1.33;0.90;;;;;;;24.16;52.42;101107.59;5032055;28;20033;-49
2022/06/30 02:22:07;;;;;;;2.03;1.10;;;25.70;86.40;;;24.16;52.39;101109.53;5031104;28;20053;-49
2022/06/30 02:24:33;;;;;;;1.70;1.13;;;25.10;86.20;;;24.14;52.32;101109.75;5031970;28;20064;-48
2022/06/30 02:26:59;;;;;;;1.20;1.08;;;25.60;86.70;;;24.14;52.46;101106.97;5032066;28;20033;-48
2022/06/30 02:29:25;;;;;;;1.50;0.82;;;25.40;86.50;;;24.14;52.04;101100.59;5032010;28;20072;-49
2022/06/30 02:31:50;;;;;;;1.90;0.98;;;25.70;86.60;;;24.14;52.31;101100.59;5032935;28;20450;-47
2022/06/30 02:34:16;;;;;;;2.80;1.08;;;25.40;86.30;;;24.13;52.14;101101.66;5036010;28;20087;-55
2022/06/30 02:36:42;;;;;;;1.48;0.90;;;25.50;86.80;;;24.12;52.13;101092.47;5036219;28;20492;-56
2022/06/30 02:39:07;;;;;;;1.17;0.93;;;25.60;86.80;;;24.11;52.35;101082.44;5035804;28;20037;-56
2022/06/30 02:41:33;;;;;;;1.52;0.98;;;25.30;86.60;;;24.11;52.28;101081.63;5035825;28;20036;-55
2022/06/30 02:43:59;;;;;;;0.80;0.80;;;25.60;86.90;;;24.10;52.48;101079.88;5035755;28;20030;-56
2022/06/30 02:46:25;;;;;;;3.00;1.10;;;25.40;86.90;;;24.11;52.08;101081.63;5035748;28;20034;-56
2022/06/30 02:48:50;;;;;;;2.40;1.13;;;25.50;87.00;;;24.10;52.17;101091.00;5035742;28;20037;-55
2022/06/30 02:51:16;;;;;;;1.27;1.10;;;25.40;86.70;;;24.09;52.44;101094.88;5035584;28;20029;-56
2022/06/30 02:53:42;;;;;;;1.15;0.82;;;25.10;79.60;;;24.09;52.23;101103.19;5035711;28;20064;-50
2022/06/30 02:56:08;;;;;;;1.63;1.13;;;;;;;24.09;52.20;101094.88;5035542;28;20388;-49
2022/06/30 02:58:34;;;;;;;1.30;0.93;;;25.40;86.50;;;24.08;52.13;101095.97;5035467;28;20035;-49
2022/06/30 03:01:00;;;;;;;3.50;1.15;;;;;;;24.07;52.21;101097.91;5035507;28;20030;-48
2022/06/30 03:03:26;;;;;;;2.05;1.23;;;25.60;87.00;;;24.07;52.19;101097.91;5035124;28;20083;-48
2022/06/30 03:05:51;;;;;;;1.23;0.85;;;25.10;86.60;;;24.07;52.27;101097.06;5035441;28;20033;-48
2022/06/30 03:08:17;;;;;;;1.80;1.15;;;25.40;86.50;;;24.06;52.17;101078.69;5035347;28;20464;-49
2022/06/30 03:10:43;;;;;;;1.27;0.90;;;25.70;86.80;;;24.05;52.55;101079.78;5035388;28;20037;-54
2022/06/30 03:13:08;;;;;;;2.75;1.15;;;25.50;86.40;;;24.04;52.28;101081.72;5035243;28;20029;-57
2022/06/30 03:15:34;;;;;;;0.95;0.88;;;25.40;86.50;;;24.06;52.37;101078.69;5035230;28;20087;-56
2022/06/30 03:18:00;;;;;;;1.77;0.88;;;;;;;24.03;52.43;101074.47;5035181;28;20484;-56
2022/06/30 03:20:26;;;;;;;1.23;0.95;;;25.30;66.90;;;24.04;52.30;101075.31;5035410;28;20380;-57
2022/06/30 03:22:52;;;;;;;1.40;1.00;;;;;;;24.02;52.29;101072.78;5034926;28;20026;-55
2022/06/30 03:25:18;;;;;;;1.05;0.90;;;;;;;24.02;52.21;101078.34;5034975;28;20030;-56
2022/06/30 03:27:44;;;;;;;0.80;0.70;;;;;;;24.02;52.27;101074.72;5034988;28;20044;-56
2022/06/30 03:30:10;;;;;;;1.52;0.98;;;25.50;61.70;;;24.01;52.22;101076.66;5034922;28;20038;-57
2022/06/30 03:32:36;;;;;;;1.60;1.10;;;25.60;86.40;;;24.01;52.51;101078.56;5035080;28;20041;-56
2022/06/30 03:35:03;;;;;;;1.42;1.00;;;25.40;86.60;;;24.00;52.43;101074.09;5034831;28;20038;-56
2022/06/30 03:37:29;;;;;;;1.40;1.00;;;25.50;86.80;;;24.00;52.42;101074.94;5035072;28;20040;-56
2022/06/30 03:39:55;;;;;;;1.42;0.95;;;25.40;86.60;;;24.00;52.44;101077.72;5034744;28;20512;-56
2022/06/30 03:42:20;;;;;;;1.00;0.90;;;25.10;86.10;;;23.99;52.12;101078.00;5034995;28;20497;-56
2022/06/30 03:44:46;;;;;;;1.77;0.85;;;25.50;83.20;;;23.98;52.25;101082.69;5033601;28;20426;-57
2022/06/30 03:47:12;;;;;;;1.27;1.15;;;25.40;86.60;;;23.98;52.35;101085.47;5034858;28;20088;-56
2022/06/30 03:49:37;;;;;;;1.05;0.95;;;25.80;86.50;;;23.98;52.34;101081.84;5034887;28;20488;-56
2022/06/30 03:52:04;;;;;;;2.15;1.02;;;25.50;86.40;;;23.98;52.13;101081.84;5034589;28;20041;-56
2022/06/30 03:54:30;;;;;;;1.58;1.00;;;;;;;23.96;52.36;101084.88;5034472;28;20045;-57
2022/06/30 03:56:56;;;;;;;7.85;0.90;;;25.10;86.50;;;23.96;52.33;101072.91;5034444;28;20025;-56
2022/06/30 03:59:21;;;;;;;1.52;1.08;;;25.40;86.80;;;23.96;52.41;101070.13;5034405;28;20484;-56
2022/06/30 04:01:47;;;;;;;0.77;0.77;;;25.20;86.40;;;23.95;52.30;101065.66;5034564;28;20061;-56
2022/06/30 04:04:13;;;;;;;0.90;0.63;;;25.50;86.60;;;23.95;52.46;101071.22;5034172;28;20045;-55
2022/06/30 04:06:39;;;;;;;1.35;1.08;;;25.50;86.60;;;23.95;52.32;101082.34;5034279;28;20029;-56
2022/06/30 04:09:04;;;;;;;0.80;0.77;;;25.60;87.00;;;23.94;52.46;101103.72;5034262;28;20121;-56
2022/06/30 04:11:31;;;;;;;0.90;0.75;;;;;;;23.95;52.46;101127.66;5034135;28;20113;-55
2022/06/30 04:13:56;;;;;;;1.10;0.63;;;25.10;86.30;;;23.95;52.14;101112.91;5034083;28;20034;-57
2022/06/30 04:16:22;;;;;;;0.95;0.93;;;25.60;86.70;;;23.93;52.46;101107.59;5034021;28;20041;-54
2022/06/30 04:18:48;;;;;;;1.13;0.90;;;25.20;76.10;;;23.94;52.14;101125.09;5034062;28;20021;-53
2022/06/30 04:21:16;;;;;;;1.70;1.00;;;25.70;86.90;;;23.93;52.16;101126.19;5033930;28;20172;-54
2022/06/30 04:23:43;;;;;;;0.90;0.63;;;25.50;71.50;;;23.92;52.36;101118.94;5033875;28;20068;-55
2022/06/30 04:26:09;;;;;;;2.70;1.10;;;25.30;86.60;;;23.91;52.24;101123.66;5033946;28;20586;-46
2022/06/30 04:28:36;;;;;;;1.17;0.93;;;25.60;86.80;;;23.92;52.39;101132.84;5033779;28;20144;-46
2022/06/30 04:33:46;;;;;;;2.55;0.70;;;25.70;86.00;;;23.92;52.22;101155.06;5033748;28;20095;-45
2022/06/30 04:36:12;;;;;;;1.17;0.90;;;24.90;61.40;;;23.91;52.14;101154.22;5033640;28;20025;-46
2022/06/30 04:38:38;;;;;;;1.80;0.70;;;;;;;23.90;52.09;101146.13;5033628;28;20041;-46
2022/06/30 04:43:48;;;;;;;1.02;0.93;;;25.50;59.60;;;23.90;52.26;101147.00;5033612;28;20071;-54
2022/06/30 04:46:14;;;;;;;1.77;0.90;;;25.50;86.30;;;23.90;52.35;101148.91;5033574;28;20030;-53
2022/06/30 04:48:39;;;;;;;0.82;0.82;;;25.50;86.10;;;23.90;52.21;101143.34;5033469;28;20038;-54
2022/06/30 04:51:05;;;;;;;0.80;0.70;;;25.50;86.10;;;23.89;51.95;101144.44;5033400;28;20037;-54
2022/06/30 04:53:31;;;;;;;1.40;0.80;;;25.20;85.70;;;23.89;52.08;101144.44;5033337;28;20044;-54
2022/06/30 04:55:56;;;;;;;1.27;0.80;;;25.10;86.00;;;23.89;51.96;101152.78;5033187;28;20064;-54
2022/06/30 04:58:22;;;;;;;1.30;0.80;;;25.40;86.10;;;23.89;52.26;101153.63;5033238;28;20041;-54
2022/06/30 05:00:48;;;;;;;1.55;0.52;;;25.10;86.00;;;23.89;51.93;101163.88;5033190;28;20034;-52
2022/06/30 05:03:14;;;;;;;0.98;0.73;;;;;;;23.89;51.97;101170.28;5033085;28;20044;-46
2022/06/30 05:05:40;;;;;;;0.77;0.63;;;25.40;66.90;;;23.90;52.30;101168.38;5032984;28;20404;-47
2022/06/30 05:08:06;;;;;;;0.77;0.60;;;25.10;86.30;;;23.89;51.97;101173.06;5033378;28;20029;-45
2022/06/30 05:10:32;;;;;;;1.30;0.60;;;;;;;23.91;52.27;101170.03;5033288;28;20029;-45
2022/06/30 05:12:58;;;;;;;1.00;0.70;;;;;;;23.93;52.13;101167.88;5032935;28;20111;-49
2022/06/30 05:15:25;;;;;;;1.00;0.70;;;;;;;23.93;52.06;101162.31;5032936;28;20045;-48
2022/06/30 05:17:50;;;;;;;0.80;0.80;;;25.20;86.00;;;23.93;52.24;101170.66;5033005;28;20065;-46
2022/06/30 05:20:16;;;;;;;2.00;0.75;;;25.50;86.00;;;23.90;52.41;101158.09;5032857;28;20064;-56
2022/06/30 05:22:42;;;;;;;1.58;0.82;;;25.60;86.20;;;23.89;52.33;101170.28;5032848;28;20044;-56
2022/06/30 05:27:53;;;;;;;2.70;0.90;;;25.30;86.00;;;23.89;52.85;101172.22;5032946;28;20567;-56
2022/06/30 05:30:18;;;;;;;2.55;0.80;;;25.40;86.30;;;23.87;52.62;101163.28;5032753;28;20116;-57
2022/06/30 05:32:45;;;;;;;1.55;0.98;;;25.40;84.10;;;23.88;52.73;101170.53;5032906;28;20032;-57
2022/06/30 05:35:12;;;;;;;1.98;0.88;;;25.40;86.70;;;23.87;53.14;101166.06;5032663;28;20033;-56
2022/06/30 05:37:37;;;;;;;1.67;0.90;;;25.40;86.20;;;23.87;52.98;101166.91;5032593;28;20044;-57
2022/06/30 05:40:04;;;;;;;1.67;0.98;;;25.40;86.50;;;23.87;53.38;101157.72;5032963;28;20112;-46
2022/06/30 05:42:30;;;;;;;1.63;0.73;;;25.40;87.20;;;23.86;53.59;101165.22;5032469;28;20087;-47
2022/06/30 05:44:56;;;;;;;1.95;1.20;;;25.50;87.10;;;23.85;53.46;101166.28;5032436;28;20427;-47
2022/06/30 05:47:22;;;;;;;2.47;0.85;;;25.20;74.60;;;23.84;53.27;101159.06;5032475;28;20087;-46
2022/06/30 05:49:48;;;;;;;3.22;1.13;;;25.50;87.30;;;23.85;53.57;101154.34;5032455;28;20068;-46
2022/06/30 05:52:14;;;;;;;1.77;1.00;;;;;;;23.85;53.32;101141.28;5032428;28;20475;-47
2022/06/30 05:54:40;;;;;;;1.67;0.80;;;;;;;23.87;53.63;101146.63;5032284;28;20034;-46
2022/06/30 05:57:06;;;;;;;3.08;1.10;;;25.60;67.60;;;23.86;54.03;101143.00;5031053;28;20468;-55
2022/06/30 05:59:33;;;;;;;2.53;0.80;;;;;;;23.87;52.91;101144.69;5032327;28;20033;-54
2022/06/30 06:02:00;;;;;;;1.42;0.63;;;25.30;86.50;;;23.92;53.15;101150.34;5032286;28;20117;-54
2022/06/30 06:04:27;;;;;;;2.00;0.90;;;25.40;87.30;;;23.90;53.63;101143.34;5031952;28;20432;-52
2022/06/30 06:06:53;;;;;;;1.23;0.70;;;25.40;86.90;;;23.89;53.18;101147.22;5031937;28;20033;-55
2022/06/30 06:09:19;;;;;;;2.45;0.70;;;25.30;87.00;;;23.93;53.28;101156.78;5032278;28;20033;-54
2022/06/30 06:11:45;;;;;;;1.73;0.82;;;25.70;87.70;;;23.97;53.52;101150.47;5032662;28;20041;-53
2022/06/30 06:14:11;;;;;;;3.70;1.00;;;25.70;88.20;;;23.97;53.60;101153.25;5032184;28;20041;-54
2022/06/30 06:16:36;;;;;;;6.68;1.42;;;25.20;87.90;;;23.96;54.38;101147.94;5032479;28;20391;-53
2022/06/30 06:19:02;;;;;;;7.63;1.10;;;25.30;83.30;;;23.92;53.90;101157.84;5032061;28;20487;-54
2022/06/30 06:21:28;;;;;;;1.73;0.77;;;25.60;87.70;;;23.90;53.97;101157.25;5032077;28;20037;-53
2022/06/30 06:23:54;;;;;;;4.07;0.80;;;24.90;86.90;;;23.89;53.63;101167.50;5032188;28;20046;-51
2022/06/30 06:26:20;;;;;;;3.28;0.93;;;25.40;69.40;;;23.91;53.41;101172.81;5032068;28;20132;-55
2022/06/30 06:29:05;;;;;;;2.38;0.95;;;25.30;81.80;;;23.91;53.39;101175.59;5032034;28;20116;-55
2022/06/30 06:31:33;;;;;;;2.60;0.95;;;25.30;87.20;;;23.89;53.09;101178.63;5031995;28;20073;-55
2022/06/30 06:34:00;;;;;;;3.83;0.90;;;25.50;87.40;;;23.90;53.41;101169.22;5031996;28;20044;-47
2022/06/30 06:36:26;;;;;;;1.90;0.70;;;;;;;23.90;53.39;101182.25;5032027;28;20087;-46
2022/06/30 06:38:52;;;;;;;4.47;1.30;;;25.20;87.50;;;23.88;53.34;101184.41;5032182;28;20030;-46
2022/06/30 06:41:20;;;;;;;3.97;1.08;;;25.60;75.70;;;23.88;53.04;101181.63;5032172;28;20551;-46
2022/06/30 06:43:49;;;;;;;3.20;1.00;;;25.70;87.70;;;23.89;53.18;101188.91;5032118;28;20107;-46
2022/06/30 06:46:15;;;;;;;2.40;1.02;;;25.60;87.30;;;23.88;52.62;101188.03;5031838;28;20091;-46
2022/06/30 06:48:42;;;;;;;6.32;1.20;;;25.00;86.50;;;23.88;52.46;101181.63;5031786;28;20487;-46
2022/06/30 06:51:08;;;;;;;2.72;1.38;;;;;;;23.88;52.91;101184.41;5031881;28;20048;-46
2022/06/30 06:53:36;;;;;;;1.65;1.00;;;25.20;71.60;;;23.88;52.76;101179.72;5032139;28;20409;-54
2022/06/30 06:56:03;;;;;;;5.97;1.67;;;25.50;86.80;;;23.88;52.91;101192.75;5032006;28;20053;-52
2022/06/30 06:58:28;;;;;;;4.30;1.40;;;25.50;87.00;;;23.90;52.93;101199.78;5032043;28;20037;-51
2022/06/30 07:00:55;;;;;;;2.15;1.10;;;25.50;86.80;;;23.89;52.84;101203.63;5031668;28;20044;-53
2022/06/30 07:03:21;;;;;;;2.50;0.80;;;25.60;87.20;;;23.91;52.87;101206.16;5031901;28;20033;-54
2022/06/30 07:05:47;;;;;;;4.13;1.05;;;25.30;86.50;;;23.90;52.57;101202.56;5031890;28;20381;-53
2022/06/30 07:08:13;;;;;;;2.35;1.00;;;25.40;86.90;;;23.93;52.96;101206.78;5031677;28;20036;-48
2022/06/30 07:10:38;;;;;;;3.10;0.73;;;25.60;87.00;;;23.95;52.92;101207.38;5031670;28;20025;-49
2022/06/30 07:13:04;;;;;;;1.75;0.90;;;25.30;79.40;;;23.96;52.90;101211.88;5031709;28;20040;-53
2022/06/30 07:15:30;;;;;;;1.90;1.02;;;25.60;67.40;;;23.93;53.00;101218.75;5031513;28;20052;-51
2022/06/30 07:17:56;;;;;;;4.68;0.88;;;;;;;23.92;53.04;101222.59;5031529;28;20041;-54
2022/06/30 07:20:22;;;;;;;1.13;0.70;;;25.50;56.00;;;23.92;53.21;101227.31;5034929;28;20029;-53
2022/06/30 07:22:48;;;;;;;3.28;0.82;;;25.50;73.10;;;23.91;52.96;101220.06;5035101;28;20041;-53
2022/06/30 07:25:14;;;;;;;10.20;1.13;;;;;;;23.92;52.82;101213.41;5035179;28;20072;-55
2022/06/30 07:27:40;;;;;;;5.13;1.70;;;;;;;23.90;52.54;101208.13;5035009;28;20038;-52
2022/06/30 07:30:07;;;;;;;4.15;1.05;;;25.00;66.90;;;23.90;52.65;101207.25;5035086;28;20127;-52
2022/06/30 07:32:33;;;;;;;2.03;1.00;;;25.50;86.20;;;23.91;52.27;101208.94;5034871;28;20033;-54
2022/06/30 07:34:58;;;;;;;2.72;1.00;;;25.20;85.90;;;23.89;52.35;101214.75;5034965;28;20108;-55
2022/06/30 07:37:24;;;;;;;4.88;1.10;;;25.30;85.80;;;23.91;52.38;101225.59;5034772;28;20083;-55
2022/06/30 07:39:50;;;;;;;2.78;0.95;;;25.60;62.10;;;23.90;51.71;101226.72;5034815;28;20037;-54
2022/06/30 07:42:16;;;;;;;2.53;0.80;;;25.00;85.00;;;23.91;51.67;101217.28;5034814;28;20381;-52
2022/06/30 07:44:43;;;;;;;3.67;1.10;;;;;;;23.92;51.94;101217.06;5034377;28;20033;-53
2022/06/30 07:47:10;;;;;;;1.95;1.08;;;25.50;85.30;;;23.95;51.63;101218.50;5034590;28;20060;-47
2022/06/30 07:49:36;;;;;;;4.90;1.10;;;;;;;23.95;52.05;101224.06;5034603;28;20064;-49
2022/06/30 07:52:02;;;;;;;2.95;0.75;;;25.80;85.70;;;23.95;51.75;101224.91;5034475;28;20531;-48
2022/06/30 07:54:27;;;;;;;6.20;1.15;;;25.40;85.30;;;24.00;52.02;101238.06;5034438;28;20116;-48
2022/06/30 07:56:53;;;;;;;3.45;0.90;;;25.70;85.60;;;24.02;51.97;101235.91;5034467;28;20060;-48
2022/06/30 07:59:19;;;;;;;1.42;0.70;;;25.30;84.90;;;24.03;51.72;101232.03;5034389;28;20400;-48
2022/06/30 08:01:44;;;;;;;1.85;0.70;;;25.30;84.90;;;24.09;51.75;101228.28;5034584;28;20091;-47
2022/06/30 08:04:11;;;;;;;2.38;1.10;;;25.50;81.70;;;24.15;51.79;101244.03;5034045;28;20041;-47
2022/06/30 08:06:38;;;;;;;2.47;1.08;;;;;;;24.23;52.66;101247.28;5034667;28;20112;-47
2022/06/30 08:09:03;;;;;;;2.13;0.57;;;25.60;85.80;;;24.30;52.44;101248.00;5034292;28;20064;-48
2022/06/30 08:11:29;;;;;;;1.77;0.98;;;25.60;85.70;;;24.33;52.31;101249.47;5034223;28;20492;-47
2022/06/30 08:13:55;;;;;;;2.22;0.70;;;25.40;60.90;;;24.35;51.87;101246.47;5033161;28;20535;-48
2022/06/30 08:16:21;;;;;;;2.33;0.82;;;25.60;84.80;;;24.37;51.74;101245.13;5034125;28;20059;-47
2022/06/30 08:18:47;;;;;;;4.35;0.90;;;25.90;85.40;;;24.41;52.20;101237.13;5034154;28;20041;-47
2022/06/30 08:21:13;;;;;;;4.65;0.82;;;25.60;84.90;;;24.48;52.25;101230.34;5034043;28;20087;-48
2022/06/30 08:23:40;;;;;;;3.17;0.93;;;25.50;85.00;;;24.51;51.75;101237.34;5033969;28;20459;-56
2022/06/30 08:26:06;;;;;;;1.75;0.93;;;;;;;24.55;51.72;101244.97;5034015;28;20424;-56
2022/06/30 08:28:33;;;;;;;2.50;0.90;;;26.30;85.40;;;24.57;51.71;101237.22;5034149;28;20095;-55
2022/06/30 08:31:00;;;;;;;2.75;0.70;;;26.10;85.30;;;24.58;52.33;101238.94;5033397;28;20033;-56
2022/06/30 08:33:26;;;;;;;1.42;0.73;;;26.40;85.70;;;24.63;51.65;101241.81;5033776;28;20096;-54
2022/06/30 08:35:52;;;;;;;3.45;0.80;;;25.90;74.20;;;24.70;51.82;101239.75;5033742;28;20491;-55
2022/06/30 08:38:18;;;;;;;2.78;0.80;;;25.80;85.00;;;24.76;52.28;101235.13;5033606;28;20041;-53
2022/06/30 08:43:33;;;;;;;3.17;0.82;;;26.60;85.70;;;24.84;52.08;101230.06;5033682;28;20053;-57
2022/06/30 08:46:01;;;;;;;0.90;0.73;;;26.10;85.00;;;24.88;52.02;101225.66;5033804;28;20115;-56
2022/06/30 08:48:28;;;;;;;2.05;0.80;;;26.50;85.10;;;24.93;51.98;101222.16;5032305;28;20107;-56
2022/06/30 08:51:05;;;;;;;2.13;0.80;;;26.30;57.90;;;24.96;51.73;101229.16;5033486;28;20033;-55
2022/06/30 08:53:50;;;;;;;2.13;0.90;;;27.00;86.10;;;25.04;51.82;101231.53;5033750;28;20400;-54
2022/06/30 08:56:17;;;;;;;4.35;0.95;;;26.40;66.80;;;25.12;51.39;101234.78;5033359;28;20463;-56
2022/06/30 08:58:44;;;;;;;1.98;0.80;;;26.30;85.10;;;25.18;51.71;101242.13;5033287;28;20034;-54
2022/06/30 09:01:10;;;;;;;1.63;0.70;;;26.70;85.50;;;25.26;51.67;101246.47;5032001;28;20030;-48
2022/06/30 09:03:38;;;;;;;1.90;0.80;;;24.30;53.80;;;25.32;51.43;101239.91;5031654;28;20037;-47
2022/06/30 09:06:05;;;;;;;0.85;0.60;;;26.70;84.90;;;25.40;51.54;101236.72;5033217;28;20040;-45
2022/06/30 09:08:31;;;;;;;2.97;0.90;;;26.60;85.00;;;25.46;51.72;101241.28;5033207;28;20045;-48
2022/06/30 09:10:56;;;;;;;1.13;0.70;;;26.90;85.50;;;25.53;51.91;101244.81;5033341;28;20030;-46
2022/06/30 09:13:24;;;;;;;1.42;0.70;;;26.60;84.50;;;25.58;51.19;101244.03;5033316;28;20392;-47
2022/06/30 09:15:51;;;;;;;1.50;0.70;;;26.80;84.80;;;25.63;51.38;101249.69;5032988;28;20037;-48
2022/06/30 09:18:28;;;;;;;1.48;0.50;;;26.80;85.00;;;25.69;51.47;101252.31;5033216;28;20060;-44
2022/06/30 09:20:55;;;;;;;1.92;0.60;;;27.30;85.30;;;25.72;51.48;101259.31;5033216;28;20117;-56
2022/06/30 09:23:22;;;;;;;1.85;0.57;;;;;;;25.72;51.51;101256.53;5032772;28;20112;-54
2022/06/30 09:25:57;;;;;;;1.10;0.55;;;27.10;54.90;;;25.72;51.73;101251.81;5032799;28;20114;-52
2022/06/30 09:28:51;;;;;;;1.95;0.80;;;27.10;85.10;;;25.76;51.21;101250.22;5032844;28;20041;-55
2022/06/30 09:31:35;;;;;;;3.42;0.90;;;26.60;84.20;;;25.86;50.85;101239.22;5032680;28;20041;-55
2022/06/30 09:34:16;;;;;;;1.48;0.60;;;27.40;85.10;;;25.98;50.84;101261.47;5032777;28;20532;-51
2022/06/30 09:36:43;;;;;;;2.95;0.68;;;27.20;84.90;;;26.02;50.75;101257.06;5032624;28;20038;-55
2022/06/30 09:39:13;;;;;;;1.20;0.60;;;27.00;84.20;;;26.05;50.61;101262.13;5032670;28;20476;-48
2022/06/30 09:41:41;;;;;;;1.58;0.73;;;27.20;84.30;;;26.10;50.95;101264.16;5031898;28;20029;-49
2022/06/30 09:44:24;;;;;;;1.17;0.40;;;27.20;68.50;;;26.11;50.97;101263.91;5032473;28;20072;-45
2022/06/30 09:47:08;;;;;;;1.95;0.77;;;27.20;84.30;;;26.11;51.07;101263.06;5032485;28;20086;-49
2022/06/30 09:49:42;;;;;;;1.88;0.63;;;27.50;54.90;;;26.10;51.42;101269.75;5032475;28;20385;-48
2022/06/30 09:52:25;;;;;;;0.75;0.60;;;27.20;84.40;;;26.12;51.41;101265.59;5032757;28;20033;-48
2022/06/30 09:55:08;;;;;;;1.50;0.50;;;27.20;84.60;;;26.15;50.59;101265.13;5032443;28;20034;-48
2022/06/30 09:57:52;;;;;;;1.70;0.55;;;27.10;84.40;;;26.19;50.94;101268.25;5031251;28;20045;-49
2022/06/30 10:00:18;;;;;;;2.33;0.55;;;27.70;84.60;;;26.23;51.28;101272.19;5032259;28;20079;-50
2022/06/30 10:02:49;;;;;;;1.95;0.68;;;28.10;57.80;;;26.28;50.69;101283.47;5032178;28;20060;-49
2022/06/30 10:05:18;;;;;;;1.80;0.40;;;27.70;54.30;;;26.33;50.64;101277.94;5032059;28;20428;-48
2022/06/30 10:07:45;;;;;;;1.02;0.50;;;27.40;84.50;;;26.40;50.36;101273.00;5032230;28;20036;-47
2022/06/30 10:10:16;;;;;;;2.38;0.45;;;27.90;84.30;;;26.43;49.99;101275.28;5032188;28;20492;-47
2022/06/30 10:12:45;;;;;;;1.08;0.60;;;27.80;77.60;;;26.45;49.75;101264.75;5032106;28;20065;-46
2022/06/30 10:15:14;;;;;;;2.03;0.70;;;27.90;83.90;;;26.36;50.22;101269.06;5032470;28;20029;-47
2022/06/30 10:17:50;;;;;;;1.80;0.60;;;27.70;53.70;;;26.26;50.05;101277.28;5032186;28;20029;-47
2022/06/30 10:20:16;;;;;;;1.38;0.60;;;28.20;53.60;;;26.17;49.74;101273.22;5031237;28;20391;-46
2022/06/30 10:22:42;;;;;;;1.95;0.60;;;27.20;58.70;;;26.10;49.48;101278.13;5032028;28;20120;-47
2022/06/30 10:25:09;;;;;;;0.60;0.50;;;25.80;51.20;;;26.06;48.90;101285.28;5031916;28;20124;-47
2022/06/30 10:27:35;;;;;;;1.30;0.80;;;27.60;82.10;;;26.03;49.11;101281.06;5032533;28;20037;-47
2022/06/30 10:30:12;;;;;;;1.27;0.50;;;27.40;81.90;;;26.05;48.25;101286.38;5032242;28;20036;-46
2022/06/30 10:33:04;;;;;;;3.03;0.60;;;27.50;81.30;;;26.05;48.49;101283.59;5030807;28;20033;-55
2022/06/30 10:35:42;;;;;;;0.77;0.60;;;27.40;81.90;;;25.98;48.61;101284.59;5031103;28;20287;-47
2022/06/30 10:38:20;;;;;;;1.42;0.50;;;27.40;81.80;;;25.95;48.72;101289.84;5030770;28;20044;-46